createdAt,value
2023-07-31T00:02:59.165Z,4.10
2023-07-31T00:08:03.097Z,4.30
2023-07-31T00:13:06.814Z,4.57
2023-07-31T00:18:12.199Z,4.33
2023-07-31T00:23:15.921Z,4.88
2023-07-31T00:28:41.438Z,4.60
2023-07-31T00:33:47.789Z,4.40
2023-07-31T00:38:51.493Z,4.35
2023-07-31T00:43:55.206Z,4.57
2023-07-31T00:49:01.769Z,3.97
2023-07-31T00:54:05.758Z,4.45
2023-07-31T00:59:09.563Z,4.55
2023-07-31T01:04:15.878Z,4.57
2023-07-31T01:09:34.548Z,4.65
2023-07-31T01:14:38.277Z,4.85
2023-07-31T01:19:44.411Z,5.20
2023-07-31T01:25:01.084Z,5.45
2023-07-31T01:30:13.393Z,5.75
2023-07-31T01:35:17.645Z,6.05
2023-07-31T01:40:21.496Z,6.80
2023-07-31T01:45:26.988Z,7.80
2023-07-31T01:50:30.643Z,6.47
2023-07-31T01:55:34.438Z,7.87
2023-07-31T02:00:39.811Z,8.63
2023-07-31T02:05:47.121Z,9.18
2023-07-31T02:10:50.916Z,8.30
2023-07-31T02:15:56.400Z,9.00
2023-07-31T02:21:00.250Z,9.00
2023-07-31T02:26:04.046Z,8.60
2023-07-31T02:31:10.562Z,7.47
2023-07-31T02:36:16.708Z,8.40
2023-07-31T02:41:20.577Z,9.32
2023-07-31T02:46:26.122Z,9.73
2023-07-31T02:57:29.704Z,8.88
2023-07-31T03:02:41.295Z,8.68
2023-07-31T03:07:58.128Z,6.40
2023-07-31T03:13:15.482Z,6.38
2023-07-31T03:18:25.380Z,5.80
2023-07-31T03:23:30.641Z,6.00
2023-07-31T03:28:39.589Z,6.55
2023-07-31T03:33:47.077Z,6.45
2023-07-31T03:38:56.626Z,5.72
2023-07-31T03:44:14.381Z,6.22
2023-07-31T03:49:22.468Z,5.85
2023-07-31T03:54:31.917Z,6.85
2023-07-31T03:59:35.637Z,6.82
2023-07-31T04:04:43.435Z,7.03
2023-07-31T04:09:52.270Z,6.78
2023-07-31T04:15:05.362Z,6.47
2023-07-31T04:20:26.281Z,7.03
2023-07-31T04:25:30.032Z,6.60
2023-07-31T04:30:33.719Z,5.97
2023-07-31T04:35:39.849Z,6.57
2023-07-31T04:40:43.562Z,6.40
2023-07-31T04:45:48.370Z,6.75
2023-07-31T04:50:53.766Z,6.63
2023-07-31T04:55:57.500Z,6.70
2023-07-31T05:01:01.287Z,6.50
2023-07-31T05:06:07.625Z,6.65
2023-07-31T05:11:11.365Z,6.68
2023-07-31T05:16:15.863Z,6.38
2023-07-31T05:21:21.388Z,6.63
2023-07-31T05:26:25.303Z,6.78
2023-07-31T05:31:29.045Z,6.63
2023-07-31T05:36:34.474Z,6.38
2023-07-31T05:41:38.314Z,6.78
2023-07-31T05:46:42.444Z,6.43
2023-07-31T05:51:48.236Z,6.93
2023-07-31T06:01:55.475Z,6.22
2023-07-31T06:07:01.650Z,6.82
2023-07-31T06:12:06.017Z,7.03
2023-07-31T06:17:09.735Z,6.47
2023-07-31T06:22:15.118Z,6.88
2023-07-31T06:27:18.826Z,6.05
2023-07-31T06:32:22.688Z,6.70
2023-07-31T06:37:28.354Z,6.35
2023-07-31T06:42:32.085Z,6.70
2023-07-31T06:47:35.877Z,5.85
2023-07-31T06:52:41.318Z,6.32
2023-07-31T06:57:45.749Z,6.80
2023-07-31T07:02:49.847Z,6.32
2023-07-31T07:07:55.270Z,6.55
2023-07-31T07:12:59.045Z,6.38
2023-07-31T07:18:02.874Z,6.78
2023-07-31T07:23:10.569Z,6.47
2023-07-31T07:28:15.720Z,6.55
2023-07-31T07:33:19.475Z,6.53
2023-07-31T07:38:24.783Z,6.43
2023-07-31T07:43:28.505Z,5.97
2023-07-31T07:48:32.237Z,7.07
2023-07-31T07:53:38.323Z,6.53
2023-07-31T07:58:43.117Z,6.72
2023-07-31T08:03:47.003Z,6.17
2023-07-31T08:08:52.448Z,6.65
2023-07-31T08:13:56.188Z,6.97
2023-07-31T08:19:00.029Z,6.35
2023-07-31T08:24:05.611Z,6.63
2023-07-31T08:29:09.353Z,6.50
2023-07-31T08:34:13.140Z,6.47
2023-07-31T08:39:18.559Z,6.18
2023-07-31T08:44:22.271Z,6.78
2023-07-31T08:49:26.577Z,6.28
2023-07-31T08:54:32.392Z,5.70
2023-07-31T08:59:37.589Z,6.72
2023-07-31T09:04:41.391Z,6.77
2023-07-31T09:09:48.383Z,6.43
2023-07-31T09:14:52.111Z,6.38
2023-07-31T09:19:55.819Z,6.68
2023-07-31T09:25:15.816Z,6.10
2023-07-31T09:30:20.114Z,6.68
2023-07-31T09:35:30.379Z,6.20
2023-07-31T09:40:37.185Z,6.57
2023-07-31T09:45:42.491Z,6.63
2023-07-31T09:50:47.397Z,6.53
2023-07-31T09:55:53.009Z,6.60
2023-07-31T10:00:57.764Z,6.15
2023-07-31T10:06:04.449Z,6.70
2023-07-31T10:11:12.022Z,6.18
2023-07-31T10:16:16.665Z,6.45
2023-07-31T10:21:20.932Z,6.00
2023-07-31T10:26:28.082Z,6.07
2023-07-31T10:31:31.981Z,6.22
2023-07-31T10:36:41.600Z,6.68
2023-07-31T10:41:48.128Z,5.60
2023-07-31T10:47:04.558Z,6.28
2023-07-31T10:52:27.787Z,6.00
2023-07-31T10:57:37.951Z,5.97
2023-07-31T11:02:44.579Z,5.70
2023-07-31T11:08:14.362Z,6.18
2023-07-31T11:13:25.015Z,6.15
2023-07-31T11:18:33.367Z,6.10
2023-07-31T11:23:41.947Z,5.93
2023-07-31T11:28:56.477Z,5.93
2023-07-31T11:34:07.509Z,4.97
2023-07-31T11:39:13.866Z,5.88
2023-07-31T11:44:29.787Z,5.50
2023-07-31T11:49:36.466Z,5.05
2023-07-31T11:54:51.762Z,5.10
2023-07-31T12:00:05.981Z,5.20
2023-07-31T12:05:16.235Z,5.50
2023-07-31T12:10:27.677Z,5.55
2023-07-31T12:15:45.690Z,6.00
2023-07-31T12:20:50.656Z,5.85
2023-07-31T12:26:06.386Z,5.80
2023-07-31T12:31:15.918Z,5.55
2023-07-31T12:36:22.124Z,5.32
2023-07-31T12:41:25.836Z,5.45
2023-07-31T12:46:33.547Z,5.60
2023-07-31T12:51:50.488Z,5.82
2023-07-31T12:56:55.004Z,5.65
2023-07-31T13:02:07.247Z,5.47
2023-07-31T13:07:15.093Z,5.40
2023-07-31T13:12:18.926Z,5.38
2023-07-31T13:17:31.900Z,5.05
2023-07-31T13:22:41.536Z,5.40
2023-07-31T13:27:46.464Z,5.30
2023-07-31T13:32:57.124Z,5.68
2023-07-31T13:38:05.807Z,5.72
2023-07-31T13:43:24.143Z,5.40
2023-07-31T13:48:39.577Z,5.40
2023-07-31T13:53:43.299Z,5.50
2023-07-31T13:58:52.683Z,5.13
2023-07-31T14:04:00.221Z,4.82
2023-07-31T14:52:03.922Z,4.60
2023-07-31T15:02:11.915Z,4.97
2023-07-31T15:07:17.392Z,4.85
2023-07-31T15:12:21.143Z,4.50
2023-07-31T15:17:24.815Z,4.55
2023-07-31T15:22:30.437Z,4.53
2023-07-31T15:32:39.088Z,4.97
2023-07-31T15:37:44.488Z,5.20
2023-07-31T15:42:48.263Z,4.80
2023-07-31T15:47:55.114Z,4.90
2023-07-31T15:53:00.537Z,4.93
2023-07-31T16:03:07.286Z,5.00
2023-07-31T16:08:12.655Z,4.78
2023-07-31T16:18:19.328Z,5.22
2023-07-31T16:23:24.827Z,4.82
2023-07-31T16:28:28.624Z,4.82
2023-07-31T16:33:32.539Z,4.82
2023-07-31T16:38:38.152Z,4.72
2023-07-31T16:43:41.868Z,4.97
2023-07-31T16:48:46.434Z,7.00
2023-07-31T16:53:51.822Z,5.25
2023-07-31T16:58:55.583Z,5.80
2023-07-31T17:03:59.649Z,5.30
2023-07-31T17:09:05.669Z,5.10
2023-07-31T17:14:09.432Z,5.75
2023-07-31T17:19:13.213Z,5.95
2023-07-31T17:24:18.655Z,5.68
2023-07-31T17:29:28.910Z,5.85
2023-07-31T17:34:33.569Z,5.88
2023-07-31T17:39:38.965Z,5.70
2023-07-31T17:44:42.807Z,6.28
2023-07-31T17:49:46.709Z,6.00
2023-07-31T17:54:52.196Z,5.53
2023-07-31T17:59:55.987Z,6.40
2023-07-31T18:04:59.761Z,5.95
2023-07-31T18:10:05.608Z,5.47
2023-07-31T18:15:10.478Z,5.25
2023-07-31T18:20:14.411Z,6.03
2023-07-31T18:25:19.875Z,6.23
2023-07-31T18:30:23.680Z,6.07
2023-07-31T18:35:27.419Z,5.50
2023-07-31T18:40:34.813Z,6.35
2023-07-31T18:45:38.549Z,5.55
2023-07-31T18:50:44.439Z,5.60
2023-07-31T18:55:50.150Z,5.38
2023-07-31T19:00:54.011Z,5.50
2023-07-31T19:06:04.102Z,6.07
2023-07-31T19:11:12.546Z,5.57
2023-07-31T19:16:18.680Z,5.40
2023-07-31T19:21:22.485Z,5.80
2023-07-31T19:26:27.891Z,5.23
2023-07-31T19:31:31.674Z,5.07
2023-07-31T19:36:35.456Z,5.23
2023-07-31T19:41:40.872Z,5.70
2023-07-31T19:46:44.627Z,5.25
2023-07-31T19:51:48.346Z,6.23
2023-07-31T19:56:55.599Z,6.07
2023-07-31T20:01:59.397Z,5.90
2023-07-31T20:07:03.566Z,5.37
2023-07-31T20:12:10.371Z,6.10
2023-07-31T20:17:14.100Z,5.68
2023-07-31T20:22:17.831Z,5.53
2023-07-31T20:27:24.395Z,5.90
2023-07-31T20:32:28.140Z,5.30
2023-07-31T20:37:32.049Z,5.40
2023-07-31T20:42:37.435Z,5.30
2023-07-31T20:47:41.217Z,5.63
2023-07-31T20:52:44.964Z,5.07
2023-07-31T20:57:50.407Z,5.67
2023-07-31T21:02:54.222Z,5.80
2023-07-31T21:07:58.081Z,5.90
2023-07-31T21:13:03.485Z,5.33
2023-07-31T21:18:07.278Z,5.90
2023-07-31T21:23:10.992Z,5.33
2023-07-31T21:28:16.649Z,5.47
2023-07-31T21:33:20.492Z,5.55
2023-07-31T21:38:24.246Z,5.47
2023-07-31T21:43:29.750Z,5.77
2023-07-31T21:48:33.458Z,5.13
2023-07-31T21:53:37.259Z,5.17
2023-07-31T21:58:42.694Z,5.50
2023-07-31T22:03:46.380Z,5.35
2023-07-31T22:08:50.109Z,5.63
2023-07-31T22:13:55.498Z,4.67
2023-07-31T22:18:59.194Z,4.53
2023-07-31T22:24:03.718Z,4.67
2023-07-31T22:29:09.130Z,5.15
2023-07-31T22:34:12.890Z,5.35
2023-07-31T22:39:16.889Z,5.13
2023-07-31T22:44:22.301Z,5.13
2023-07-31T22:49:26.133Z,5.00
2023-07-31T22:54:29.892Z,4.80
2023-07-31T22:59:35.513Z,4.77
2023-07-31T23:04:40.532Z,4.95
2023-07-31T23:09:44.233Z,4.60
2023-07-31T23:14:50.182Z,5.10
2023-07-31T23:19:53.926Z,5.05
2023-07-31T23:24:57.736Z,4.57
2023-07-31T23:30:04.238Z,5.00
2023-07-31T23:35:09.413Z,5.03
2023-07-31T23:40:14.036Z,5.20
2023-07-31T23:45:20.772Z,5.45
2023-07-31T23:50:24.720Z,5.25
2023-07-31T23:55:28.480Z,5.55
